sensor_id;sensor_type;location;lat;lon;timestamp;P1;durP1;ratioP1;P2;durP2;ratioP2
60718;SDS011;46567;51.660;5.824;2022-09-30T00:38:00;9.5;;;7.6;;
60718;SDS011;46567;51.660;5.824;2022-09-30T01:58:06;11.7;;;8.1;;
60718;SDS011;46567;51.660;5.824;2022-09-30T02:18:03;9.6;;;6.5;;
60718;SDS011;46567;51.660;5.824;2022-09-30T02:39:04;12.7;;;6.9;;
60718;SDS011;46567;51.660;5.824;2022-09-30T03:19:20;11.9;;;9.6;;
60718;SDS011;46567;51.660;5.824;2022-09-30T04:18:45;12.8;;;9.6;;
60718;SDS011;46567;51.660;5.824;2022-09-30T04:38:45;12.0;;;8.6;;
60718;SDS011;46567;51.660;5.824;2022-09-30T04:58:00;16.6;;;10.7;;
60718;SDS011;46567;51.660;5.824;2022-09-30T05:18:00;14.4;;;10.5;;
60718;SDS011;46567;51.660;5.824;2022-09-30T06:18:00;13.6;;;9.8;;
60718;SDS011;46567;51.660;5.824;2022-09-30T06:39:30;16.5;;;10.8;;
60718;SDS011;46567;51.660;5.824;2022-09-30T06:58:45;16.2;;;11.6;;
60718;SDS011;46567;51.660;5.824;2022-09-30T07:18:45;19.5;;;13.7;;
60718;SDS011;46567;51.660;5.824;2022-09-30T07:38:00;19.6;;;14.6;;
60718;SDS011;46567;51.660;5.824;2022-09-30T07:58:00;21.3;;;16.1;;
60718;SDS011;46567;51.660;5.824;2022-09-30T08:18:00;41.8;;;24.2;;
60718;SDS011;46567;51.660;5.824;2022-09-30T08:59:31;27.3;;;21.4;;
60718;SDS011;46567;51.660;5.824;2022-09-30T09:18:15;25.5;;;19.9;;
60718;SDS011;46567;51.660;5.824;2022-09-30T09:38:29;19.6;;;15.5;;
60718;SDS011;46567;51.660;5.824;2022-09-30T09:58:09;16.9;;;12.5;;
60718;SDS011;46567;51.660;5.824;2022-09-30T10:18:00;13.0;;;9.7;;
60718;SDS011;46567;51.660;5.824;2022-09-30T10:38:00;14.0;;;9.3;;
60718;SDS011;46567;51.660;5.824;2022-09-30T10:58:02;13.8;;;8.5;;
60718;SDS011;46567;51.660;5.824;2022-09-30T11:18:01;13.3;;;10.9;;
60718;SDS011;46567;51.660;5.824;2022-09-30T11:39:21;9.1;;;7.4;;
60718;SDS011;46567;51.660;5.824;2022-09-30T11:58:17;5.0;;;3.4;;
60718;SDS011;46567;51.660;5.824;2022-09-30T12:18:10;3.3;;;2.1;;
60718;SDS011;46567;51.660;5.824;2022-09-30T12:40:00;3.1;;;1.5;;
60718;SDS011;46567;51.660;5.824;2022-09-30T12:58:00;1.8;;;1.2;;
60718;SDS011;46567;51.660;5.824;2022-09-30T13:18:01;1.4;;;1.2;;
60718;SDS011;46567;51.660;5.824;2022-09-30T13:38:18;1.5;;;1.1;;
60718;SDS011;46567;51.660;5.824;2022-09-30T13:58:03;1.6;;;1.1;;
60718;SDS011;46567;51.660;5.824;2022-09-30T14:20:41;1.5;;;0.8;;
60718;SDS011;46567;51.660;5.824;2022-09-30T14:38:02;1.5;;;0.9;;
60718;SDS011;46567;51.660;5.824;2022-09-30T14:58:20;2.2;;;1.0;;
60718;SDS011;46567;51.660;5.824;2022-09-30T15:38:08;1.9;;;1.1;;
60718;SDS011;46567;51.660;5.824;2022-09-30T15:58:00;1.1;;;0.8;;
60718;SDS011;46567;51.660;5.824;2022-09-30T16:18:00;2.8;;;1.0;;
60718;SDS011;46567;51.660;5.824;2022-09-30T16:38:01;1.5;;;1.0;;
60718;SDS011;46567;51.660;5.824;2022-09-30T16:58:00;1.7;;;1.4;;
60718;SDS011;46567;51.660;5.824;2022-09-30T17:18:02;2.4;;;1.6;;
60718;SDS011;46567;51.660;5.824;2022-09-30T17:38:00;3.1;;;2.3;;
60718;SDS011;46567;51.660;5.824;2022-09-30T17:58:00;2.3;;;2.1;;
60718;SDS011;46567;51.660;5.824;2022-09-30T18:18:00;2.4;;;2.1;;
60718;SDS011;46567;51.660;5.824;2022-09-30T18:38:00;2.9;;;1.9;;
60718;SDS011;46567;51.660;5.824;2022-09-30T18:58:00;2.5;;;2.2;;
60718;SDS011;46567;51.660;5.824;2022-09-30T19:18:00;3.8;;;2.4;;
60718;SDS011;46567;51.660;5.824;2022-09-30T19:38:00;3.3;;;2.4;;
60718;SDS011;46567;51.660;5.824;2022-09-30T19:58:00;3.0;;;2.3;;
60718;SDS011;46567;51.660;5.824;2022-09-30T20:18:00;3.2;;;2.2;;
60718;SDS011;46567;51.660;5.824;2022-09-30T20:38:00;2.2;;;1.9;;
60718;SDS011;46567;51.660;5.824;2022-09-30T20:58:00;2.8;;;2.3;;
60718;SDS011;46567;51.660;5.824;2022-09-30T21:18:00;4.5;;;3.2;;
60718;SDS011;46567;51.660;5.824;2022-09-30T21:38:00;5.5;;;3.8;;
60718;SDS011;46567;51.660;5.824;2022-09-30T21:58:00;4.0;;;3.1;;
60718;SDS011;46567;51.660;5.824;2022-09-30T22:18:00;6.1;;;2.8;;
60718;SDS011;46567;51.660;5.824;2022-09-30T22:38:00;3.7;;;3.2;;
60718;SDS011;46567;51.660;5.824;2022-09-30T23:38:00;6.1;;;4.0;;
